Tiempo atmosférico en la estación meteorológica de Coll De Nargó, Lleida (603 m.)



Fecha
DESCASC
Temp. máxima en grados centígrados (hora)
DESCASC
Temp. mínima en grados centígrados (hora)
DESCASC
Temp. media en grados centígrados
DESCASC
Racha de viento máxima en m/sg (hora)
DESCASC
Velocidad máxima media en intervalos de 10 minutos(hora)
DESCASC
Precipitaciones diarias en mm
DESCASC
Precipitaciones de 00:00 a 06:00 en mm
DESCASC
Precipitaciones de 06:00 a 12:00 en mm
DESCASC
Precipitaciones de 12:00 a 18:00 en mm
DESCASC
Precipitaciones de 18:00 a 24:00 en mm
DESCASC
17-10-2019 24 (15:20) 5.7 (07:40) 14.8 11.67 (19:20) 8.61 (19:20) 0 0 0 0 0
16-10-2019 20.9 (15:30) 5 (06:30) 12.9 11.39 (13:30) 7.5 (17:40) 0 0 0 0 0
15-10-2019 20.3 (15:50) 7.9 (09:20) 14.1 11.67 (04:10) 8.61 (04:10) 3 3 0 0 0
14-10-2019 24.1 (12:50) 11.9 (08:30) 18 12.22 (21:40) 6.94 (21:30) 12.8 0 0 3.6 9.2
13-10-2019 27.9 (13:10) 12.8 (00:00) 20.3 11.94 (20:30) 8.06 (20:10) 0 0 0 0 0
12-10-2019 27.8 (15:00) 14.1 (00:00) 20.9 11.11 (19:20) 6.67 (21:40) 0 0 0 0 0
11-10-2019 26.4 (15:20) 5.8 (00:00) 16.1 11.67 (16:00) 9.17 (14:40) 0 0 0 0 0
10-10-2019 22 (14:40) 9.1 (00:00) 15.6 12.78 (15:40) 10 (13:50) 0 0 0 0 0
09-10-2019 25.8 (14:10) 8.8 (00:00) 17.3 12.78 (15:50) 9.44 (15:50) 0 0 0 0 0
08-10-2019 26.3 (15:30) 8.6 (00:00) 17.4 11.67 (15:20) 9.17 (15:00) 0 0 0 0 0
07-10-2019 22.6 (12:30) 8.4 (00:00) 15.5 15 (01:30) 11.67 (17:40) 0 0 0 0 0
06-10-2019 22.1 (14:40) 8.5 (00:00) 15.3 15 (17:20) 11.67 (16:20) 0 0 0 0 0
05-10-2019 23.8 (16:30) 8.1 (00:00) 15.9 13.89 (15:20) 10.83 (15:10) 0 0 0 0 0
04-10-2019 25.1 (15:20) 6.3 (00:00) 15.7 12.22 (13:30) 8.89 (13:30) 0 0 0 0 0
03-10-2019 22.7 (15:40) 6.7 (00:00) 14.7 14.17 (14:40) 11.39 (14:40) 0 0 0 0 0
02-10-2019 25.6 (15:40) 9.7 (00:00) 17.7 12.78 (17:10) 8.33 (17:30) 0 0 0 0 0
01-10-2019 30.3 (14:50) 9.9 (00:00) 20.1 11.11 (17:40) 7.5 (15:50) 0 0 0 0 0
30-09-2019 29.3 (15:20) 9.9 (00:00) 19.6 11.67 (16:30) 8.89 (14:30) 0 0 0 0 0
29-09-2019 31.7 (15:30) 10 (00:00) 20.9 11.67 (15:50) 7.78 (14:30) 0 0 0 0 0
28-09-2019 26.9 (14:00) 10.8 (00:00) 18.8 10.83 (16:10) 7.78 (15:30) 0 0 0 0 0
27-09-2019 29.8 (15:10) 10.5 (00:00) 20.1 9.72 (13:20) 7.78 (13:20) 0 0 0 0 0
26-09-2019 26.4 (16:20) 9.3 (00:00) 17.8 11.11 (13:50) 8.89 (13:50) 0 0 0 0 0
25-09-2019 24.9 (16:20) 12 (00:00) 18.4 13.06 (11:30) 10.56 (11:30) 0 0 0 0 0
24-09-2019 28.2 (15:00) 9.6 (00:00) 18.9 11.67 (15:50) 8.33 (16:10) 0 0 0 0 0
23-09-2019 24.6 (15:20) 9.1 (00:00) 16.9 10.56 (14:00) 8.33 (12:50) 0 0 0 0 0
22-09-2019 26.2 (14:00) 14.2 (00:00) 20.2 10.28 (17:50) 6.67 (17:50) 0 0 0 0 0
21-09-2019 26 (14:40) 13.3 (00:00) 19.7 11.94 (17:20) 8.06 (18:50) 8 0 8 0 0
20-09-2019 28.2 (15:40) 12.7 (00:00) 20.5 10 (20:40) 6.67 (17:10) 0.2 0 0.2 0 0

Gráficas

Temp. máximas Temp. mínimas Temp. medias Precipitaciones Rachas de viento máximas Velocidades máximas media en intervalos de 10 minutos

Datos horarios

Fecha y hora oficial Temperatura (ºC) Velocidad del viento (km/h) Dirección del viento Racha (km/h) Dirección de racha Precipitación (mm) Presión (hPa) Tendencia (hPa) Humedad (%)
2019-10-19 23:00:00 -- -- -- -- -- -- -- -- --
2019-10-19 22:00:00 17.3 13 Sur 29 Sur 0 -- -- 65
2019-10-19 21:00:00 17.4 13 Sur 30 Sur 0 -- -- 63
2019-10-19 20:00:00 16.8 0 Calma 11 Sur 0 -- -- 59
2019-10-19 19:00:00 17.8 8 Sur 19 Sur 0 -- -- 55
2019-10-19 18:00:00 20.1 13 Sur 24 Sudeste 0 -- -- 47
2019-10-19 17:00:00 22.8 7 Sudoeste 17 Sur 0 -- -- 46
2019-10-19 16:00:00 21.5 13 Oeste 37 Sudeste 0 -- -- 50
2019-10-19 15:00:00 21.4 11 Sudoeste 36 Sudeste 0 -- -- 50
2019-10-19 14:00:00 24 17 Sur 35 Sudeste 0 -- -- 45
2019-10-19 13:00:00 22.9 23 Sur 30 Sur 0 -- -- 51
2019-10-19 12:00:00 21.6 3 Nordeste 9 Nordeste 0 -- -- 55
2019-10-19 11:00:00 15.7 2 Nordeste 6 Norte 0 -- -- 86
2019-10-19 10:00:00 10.2 5 Norte 10 Nordeste 0 -- -- 99
2019-10-19 09:00:00 9.4 3 Norte 9 Norte 0 -- -- 99
2019-10-19 08:00:00 9.5 6 Norte 9 Noroeste 0 -- -- 100
2019-10-19 07:00:00 9.5 4 Norte 6 Nordeste 0 -- -- 98
2019-10-19 06:00:00 9.8 6 Norte 10 Norte 0 -- -- 98
2019-10-19 05:00:00 10.4 4 Norte 10 Noroeste 0 -- -- 97
2019-10-19 04:00:00 10.6 6 Norte 8 Norte 0 -- -- 96
2019-10-19 03:00:00 11 5 Norte 6 Norte 0 -- -- 95
2019-10-19 02:00:00 12 4 Noroeste 7 Noroeste 0 -- -- 93
2019-10-19 01:00:00 12.4 5 Norte 9 Nordeste 0 -- -- 90
2019-10-19 00:00:00 12.3 5 Norte 9 Norte 0 -- -- 91
2019-10-18 23:00:00 13.5 0 Calma 6 Nordeste 0 -- -- 85
2019-10-18 22:00:00 14.1 3 Este 18 Sur 0 -- -- 83
2019-10-18 21:00:00 15.7 4 Sur 10 Sudoeste 0 -- -- 77
2019-10-18 20:00:00 17.5 9 Sudoeste 27 Sur 0 -- -- 70
2019-10-18 19:00:00 18.3 21 Sur 30 Sur 0 -- -- 68
2019-10-18 18:00:00 19.2 22 Sur 30 Sur 0 -- -- 64
2019-10-18 17:00:00 20.8 20 Sudeste 30 Sur 0 -- -- 57
2019-10-18 16:00:00 21 22 Sudeste 36 Sur 0 -- -- 56
2019-10-18 15:00:00 20.5 27 Sur 33 Sur 0 -- -- 56
2019-10-18 14:00:00 21.1 5 Nordeste 9 Nordeste 0 -- -- 48
2019-10-18 13:00:00 19.4 4 Nordeste 10 Norte 0 -- -- 52
2019-10-18 12:00:00 15.7 8 Norte 12 Norte 0 -- -- 62
2019-10-18 11:00:00 13.5 6 Norte 9 Norte 0 -- -- 69
2019-10-18 10:00:00 11.1 3 Norte 7 Norte 0 -- -- 80
2019-10-18 09:00:00 8.9 4 Norte 6 Norte 0 -- -- 90
2019-10-18 08:00:00 8.3 5 Norte 9 Norte 0 -- -- 90
2019-10-18 07:00:00 8 2 Norte 9 Noroeste 0 -- -- 92
2019-10-18 06:00:00 7.7 7 Norte 9 Norte 0 -- -- 93
2019-10-18 05:00:00 7.9 4 Norte 10 Norte 0 -- -- 91
2019-10-18 04:00:00 8.1 3 Norte 8 Norte 0 -- -- 91
2019-10-18 03:00:00 7.9 4 Norte 6 Norte 0 -- -- 91
2019-10-18 02:00:00 7.8 3 Norte 9 Norte 0 -- -- 92
2019-10-18 01:00:00 8 8 Norte 11 Norte 0 -- -- 89
2019-10-18 00:00:00 9.6 4 Norte 9 Norte 0 -- -- 83
2019-10-17 23:00:00 10.6 4 Norte 8 Nordeste 0 -- -- 77
2019-10-17 22:00:00 12.7 5 Sur 22 Sur 0 -- -- 69
2019-10-17 21:00:00 14.4 18 Sur 34 Sur 0 -- -- 61
2019-10-17 20:00:00 16 27 Sur 42 Sur 0 -- -- 53
2019-10-17 19:00:00 17.5 30 Sur 37 Sudeste 0 -- -- 46
2019-10-17 18:00:00 19.5 23 Sur 32 Sur 0 -- -- 42
2019-10-17 17:00:00 21.5 19 Sur 26 Sur 0 -- -- 45
2019-10-17 16:00:00 22.8 9 Sudoeste 26 Sudeste 0 -- -- 35
2019-10-17 15:00:00 22.5 15 Sur 30 Sudeste 0 -- -- 38
2019-10-17 14:00:00 21.3 13 Sudeste 25 Sur 0 -- -- 46
2019-10-17 13:00:00 21.7 3 Nordeste 10 Norte 0 -- -- 45
2019-10-17 12:00:00 18.7 5 Nordeste 9 Norte 0 -- -- 52
2019-10-17 11:00:00 14.8 4 Norte 10 Norte 0 -- -- 65
2019-10-17 10:00:00 7.8 6 Norte 15 Norte 0 -- -- 97
2019-10-17 09:00:00 5.9 5 Norte 8 Norte 0 -- -- 98
2019-10-17 08:00:00 6.3 5 Norte 8 Norte 0 -- -- 96
2019-10-17 07:00:00 6 5 Norte 8 Norte 0 -- -- 95
2019-10-17 06:00:00 6.9 4 Norte 8 Norte 0 -- -- 93
2019-10-17 05:00:00 6.7 5 Norte 11 Norte 0 -- -- 97
2019-10-17 04:00:00 7 7 Norte 13 Norte 0 -- -- 93
2019-10-17 03:00:00 8 3 Norte 8 Norte 0 -- -- 90
2019-10-17 02:00:00 8.1 5 Norte 9 Norte 0 -- -- 89
2019-10-17 01:00:00 8.4 3 Norte 8 Norte 0 -- -- 90
2019-10-17 00:00:00 8.8 4 Norte 8 Norte 0 -- -- 86
2019-10-16 23:00:00 9.7 3 Nordeste 9 Norte 0 -- -- 83
2019-10-16 22:00:00 10.3 6 Norte 9 Nordeste 0 -- -- 79
2019-10-16 21:00:00 13.1 2 Oeste 27 Sur 0 -- -- 65
2019-10-16 20:00:00 14.8 22 Sur 35 Sudeste 0 -- -- 56
2019-10-16 19:00:00 16.2 24 Sur 37 Sudeste 0 -- -- 53
2019-10-16 18:00:00 17.2 27 Sudeste 37 Sur 0 -- -- 51
2019-10-16 17:00:00 20.2 21 Sur 35 Sudeste 0 -- -- 45
2019-10-16 16:00:00 18.6 23 Sudeste 33 Sudeste 0 -- -- 48
2019-10-16 15:00:00 20.5 23 Sudeste 41 Sur 0 -- -- 43
2019-10-16 14:00:00 19.7 24 Sur 41 Sur 0 -- -- 46
2019-10-16 13:00:00 18.3 23 Sudeste 35 Sur 0 -- -- 50
2019-10-16 12:00:00 17.8 4 Nordeste 14 Sudeste 0 -- -- 51
2019-10-16 11:00:00 14.3 3 Nordeste 9 Nordeste 0 -- -- 61
2019-10-16 10:00:00 8.8 3 Norte 6 Norte 0 -- -- 93
2019-10-16 09:00:00 6.6 2 Noroeste 7 Norte 0 -- -- 98
2019-10-16 08:00:00 5.8 5 Norte 8 Norte 0 -- -- 99
2019-10-16 07:00:00 5.4 3 Norte 8 Noroeste 0 -- -- 99
2019-10-16 06:00:00 5.2 3 Norte 8 Noroeste 0 -- -- 99
2019-10-16 05:00:00 5.1 6 Norte 9 Nordeste 0 -- -- 99
2019-10-16 04:00:00 5.5 4 Norte 8 Nordeste 0 -- -- 98
2019-10-16 03:00:00 5.8 5 Norte 8 Norte 0 -- -- 97
2019-10-16 02:00:00 6.2 2 Nordeste 8 Norte 0 -- -- 96
2019-10-16 01:00:00 7 4 Nordeste 7 Norte 0 -- -- 93
2019-10-16 00:00:00 8.1 3 Norte 5 Norte 0 -- -- 89
2019-10-15 23:00:00 9.7 3 Sudeste 10 Sur 0 -- -- 83
2019-10-15 22:00:00 10.7 2 Sudeste 20 Sur 0 -- -- 79
2019-10-15 21:00:00 11.8 12 Sur 25 Sur 0 -- -- 74
2019-10-15 20:00:00 13.5 12 Sur 25 Sudeste 0 -- -- 63
2019-10-15 19:00:00 15.1 17 Sur 30 Sur 0 -- -- 58
2019-10-15 18:00:00 18.3 13 Sur 34 Sur 0 -- -- 47
2019-10-15 17:00:00 19.3 20 Sur 29 Sur 0 -- -- 40
2019-10-15 16:00:00 19.5 15 Sur 27 Sur 0 -- -- 46
2019-10-15 15:00:00 19 22 Sudeste 35 Sur 0 -- -- 50
2019-10-15 14:00:00 17.2 27 Sur 38 Sur 0 -- -- 61
2019-10-15 13:00:00 15.8 26 Sur 34 Sur 0 -- -- 66
2019-10-15 12:00:00 14.1 23 Sur 37 Sur 0 -- -- 72
2019-10-15 11:00:00 11.7 27 Sur 33 Sur 0 -- -- 81
2019-10-15 10:00:00 8.8 4 Sur 13 Sur 0 -- -- 90
2019-10-15 09:00:00 8.5 3 Norte 24 Sur 0 -- -- 86
2019-10-15 08:00:00 9.2 18 Sur 30 Sur 0 -- -- 79
2019-10-15 07:00:00 9.9 13 Sudoeste 33 Sudoeste 0 -- -- 77
2019-10-15 06:00:00 9.9 15 Sur 27 Sur 0 -- -- 87
2019-10-15 05:00:00 10.5 19 Sur 42 Sur 0 -- -- 95
2019-10-15 04:00:00 11.6 28 Sur 36 Sur 0.2 -- -- 93
2019-10-15 03:00:00 12.6 9 Sur 16 Sur 0 -- -- 96
2019-10-15 02:00:00 13.7 7 Sur 24 Sur 1.8 -- -- 96
2019-10-15 01:00:00 13.6 14 Sudeste 30 Sur 1 -- -- 95
2019-10-15 00:00:00 14.4 20 Sur 32 Sur 0.8 -- -- 97
2019-10-14 23:00:00 14.4 13 Sur 32 Sur 2.4 -- -- 97
2019-10-14 22:00:00 14.6 9 Sur 44 Sur 6 -- -- 94
2019-10-14 21:00:00 15.1 7 Nordeste 13 Oeste 0 -- -- 96
2019-10-14 20:00:00 15.1 3 Norte 12 Sur 0 -- -- 96
2019-10-14 19:00:00 15.7 3 Nordeste 10 Nordeste 0 -- -- 94
2019-10-14 18:00:00 16 6 Norte 19 Norte 0.2 -- -- 96
2019-10-14 17:00:00 16.1 10 Sur 30 Sur 3.4 -- -- 94
2019-10-14 16:00:00 20.6 5 Noroeste 21 Sur 0 -- -- 63
2019-10-14 15:00:00 21.1 14 Sur 33 Sur 0 -- -- 61
2019-10-14 14:00:00 21.9 14 Sur 37 Sudoeste 0 -- -- 57
2019-10-14 13:00:00 23.6 9 Sur 18 Sudoeste 0 -- -- 52
2019-10-14 12:00:00 21.5 5 Norte 10 Nordeste 0 -- -- 56
2019-10-14 11:00:00 19.6 6 Nordeste 10 Nordeste 0 -- -- 63
2019-10-14 10:00:00 14.2 4 Norte 7 Noroeste 0 -- -- 87
2019-10-14 09:00:00 12.1 3 Norte 7 Norte 0 -- -- 92
2019-10-14 08:00:00 12.1 3 Norte 10 Norte 0 -- -- 92
2019-10-14 07:00:00 13 4 Norte 9 Norte 0 -- -- 93
2019-10-14 06:00:00 12.8 6 Norte 10 Norte 0 -- -- 95
2019-10-14 05:00:00 13.5 6 Norte 8 Norte 0 -- -- 93
2019-10-14 04:00:00 13.2 5 Norte 7 Norte 0 -- -- 95
2019-10-14 03:00:00 14 0 Calma 5 Norte 0 -- -- 94
2019-10-14 02:00:00 14.7 4 Norte 10 Nordeste 0 -- -- 90
2019-10-14 01:00:00 16.5 5 Sudeste 26 Sur 0 -- -- 85
2019-10-14 00:00:00 17.8 15 Sur 27 Sur 0 -- -- 83
2019-10-13 23:00:00 18.1 22 Sur 34 Sur 0 -- -- 82
2019-10-13 22:00:00 18.9 16 Sur 34 Sudeste 0 -- -- 76
2019-10-13 21:00:00 20.2 21 Sur 43 Sur 0 -- -- 72
2019-10-13 20:00:00 21.3 27 Sur 39 Sur 0 -- -- 66
2019-10-13 19:00:00 22.9 17 Sur 29 Sur 0 -- -- 56
2019-10-13 18:00:00 24 19 Sudeste 33 Sudeste 0 -- -- 50
2019-10-13 17:00:00 26.7 18 Sudoeste 40 Sudoeste 0 -- -- 41
2019-10-13 16:00:00 26.4 17 Sudoeste 32 Sudeste 0 -- -- 43
2019-10-13 15:00:00 26.7 15 Sur 36 Sur 0 -- -- 42
2019-10-13 14:00:00 26.8 17 Sur 24 Sur 0 -- -- 44
2019-10-13 13:00:00 27.6 3 Este 10 Sur 0 -- -- 40
2019-10-13 12:00:00 23.9 5 Norte 9 Nordeste 0 -- -- 51
2019-10-13 11:00:00 21.3 5 Nordeste 11 Norte 0 -- -- 61
2019-10-13 10:00:00 16.4 4 Nordeste 6 Nordeste 0 -- -- 79
2019-10-13 09:00:00 14.5 2 Norte 12 Norte 0 -- -- 88
2019-10-13 08:00:00 13.7 6 Norte 11 Norte 0 -- -- 92
2019-10-13 07:00:00 13.7 3 Nordeste 11 Norte 0 -- -- 93
2019-10-13 06:00:00 13.5 3 Nordeste 6 Norte 0 -- -- 95
2019-10-13 05:00:00 12.8 4 Norte 6 Nordeste 0 -- -- 95
2019-10-13 04:00:00 13.4 4 Norte 12 Norte 0 -- -- 95
2019-10-13 03:00:00 14.5 5 Norte 12 Sudeste 0 -- -- 91
2019-10-13 02:00:00 15.7 4 Este 27 Sur 0 -- -- 87
2019-10-13 01:00:00 17.3 22 Sur 30 Sur 0 -- -- 85
2019-10-13 00:00:00 17.7 21 Sur 31 Sur 0 -- -- 83
2019-10-12 23:00:00 18.4 22 Sur 31 Sur 0 -- -- 81
2019-10-12 22:00:00 19.6 17 Sur 36 Sur 0 -- -- 75
2019-10-12 21:00:00 20.5 17 Sur 28 Sur 0 -- -- 72
2019-10-12 20:00:00 21.1 8 Sur 40 Sur 0 -- -- 63
2019-10-12 19:00:00 22.9 22 Sur 32 Sur 0 -- -- 56
2019-10-12 18:00:00 24.1 10 Sudoeste 24 Sudoeste 0 -- -- 52
2019-10-12 17:00:00 25.9 7 Sur 21 Sur 0 -- -- 48
2019-10-12 16:00:00 25.6 9 Sur 27 Sur 0 -- -- 48
2019-10-12 15:00:00 27.8 9 Sur 17 Sudeste 0 -- -- 44
2019-10-12 14:00:00 25.8 4 Norte 8 Sudoeste 0 -- -- 52
2019-10-12 13:00:00 22.9 5 Nordeste 8 Nordeste 0 -- -- 59
2019-10-12 12:00:00 20.5 5 Nordeste 8 Nordeste 0 -- -- 62
2019-10-12 11:00:00 17.1 3 Norte 5 Noroeste 0 -- -- 73
2019-10-12 10:00:00 16 0 Calma 6 Norte 0 -- -- 78
2019-10-12 09:00:00 14.8 3 Noroeste 6 Noroeste 0 -- -- 83
2019-10-12 08:00:00 14.4 4 Norte 8 Norte 0 -- -- 84
2019-10-12 07:00:00 14.7 0 Calma 4 Oeste 0 -- -- 83
2019-10-12 06:00:00 14.8 3 Norte 6 Noroeste 0 -- -- 85
2019-10-12 05:00:00 14.8 4 Norte 8 Nordeste 0 -- -- 87
2019-10-12 04:00:00 14.9 0 Calma 7 Norte 0 -- -- 88
2019-10-12 03:00:00 14.6 4 Norte 9 Norte 0 -- -- 90
2019-10-12 02:00:00 14.3 2 Norte 7 Norte 0 -- -- 91
2019-10-12 01:00:00 15.3 0 Calma 6 Sudeste 0 -- -- 87
2019-10-12 00:00:00 16.1 3 Sudeste 8 Sudeste 0 -- -- 85
2019-10-11 23:00:00 17 2 Noroeste 18 Sur 0 -- -- 81
2019-10-11 22:00:00 18.9 19 Sur 38 Sur 0 -- -- 77
2019-10-11 21:00:00 19.4 22 Sur 30 Sudeste 0 -- -- 73
2019-10-11 20:00:00 20.7 12 Sur 29 Sur 0 -- -- 64
2019-10-11 19:00:00 22 24 Sur 34 Sur 0 -- -- 60
2019-10-11 18:00:00 24.3 26 Sur 36 Sur 0 -- -- 51
2019-10-11 17:00:00 26.2 24 Sur 40 Sur 0 -- -- 44
2019-10-11 16:00:00 25.7 31 Sur 42 Sur 0 -- -- 44
2019-10-11 15:00:00 25.4 33 Sur 41 Sur 0 -- -- 42
2019-10-11 14:00:00 25.8 20 Sur 28 Sur 0 -- -- 36
2019-10-11 13:00:00 23.7 3 Nordeste 9 Norte 0 -- -- 37
2019-10-11 12:00:00 19.9 3 Norte 10 Nordeste 0 -- -- 48
2019-10-11 11:00:00 17.1 4 Nordeste 8 Nordeste 0 -- -- 53
2019-10-11 10:00:00 11.2 5 Norte 8 Norte 0 -- -- 78
2019-10-11 09:00:00 6.9 5 Norte 8 Norte 0 -- -- 97
2019-10-11 08:00:00 5.9 5 Norte 8 Norte 0 -- -- 97
2019-10-11 07:00:00 6.2 5 Norte 8 Nordeste 0 -- -- 96
2019-10-11 06:00:00 7.6 3 Norte 9 Norte 0 -- -- 91
2019-10-11 05:00:00 7 6 Norte 9 Norte 0 -- -- 96
2019-10-11 04:00:00 7.5 4 Norte 10 Norte 0 -- -- 95
2019-10-11 03:00:00 7.4 8 Norte 10 Norte 0 -- -- 95
2019-10-11 02:00:00 8.1 5 Norte 6 Norte 0 -- -- 91
2019-10-11 01:00:00 9 3 Norte 4 Norte 0 -- -- 88
2019-10-11 00:00:00 10.8 0 Calma 4 Norte 0 -- -- 80
2019-10-10 23:00:00 11.4 3 Nordeste 4 Nordeste 0 -- -- 77
2019-10-10 22:00:00 13.1 3 Nordeste 10 Sur 0 -- -- 70
2019-10-10 21:00:00 15.5 10 Sur 28 Sur 0 -- -- 63
2019-10-10 20:00:00 16.5 21 Sur 36 Sur 0 -- -- 60
2019-10-10 19:00:00 17.8 28 Sur 36 Sur 0 -- -- 55
2019-10-10 18:00:00 20 30 Sur 39 Sur 0 -- -- 48
2019-10-10 17:00:00 21.7 29 Sur 45 Sur 0 -- -- 43
2019-10-10 16:00:00 21.6 31 Sur 46 Sur 0 -- -- 42
2019-10-10 15:00:00 21.9 32 Sur 44 Sur 0 -- -- 43
2019-10-10 14:00:00 21 35 Sur 44 Sur 0 -- -- 44
2019-10-10 13:00:00 20 32 Sur 44 Sur 0 -- -- 48
2019-10-10 12:00:00 18.7 25 Sur 37 Sur 0 -- -- 52
2019-10-10 11:00:00 17 18 Sudeste 30 Sur 0 -- -- 58
2019-10-10 10:00:00 13 0 Calma 4 Sur 0 -- -- 81
2019-10-10 09:00:00 9.3 0 Calma 13 Sudeste 0 -- -- 90
2019-10-10 08:00:00 10.1 4 Sudeste 18 Sur 0 -- -- 88
2019-10-10 07:00:00 11.3 10 Sur 19 Sur 0 -- -- 85
2019-10-10 06:00:00 12.4 9 Sur 23 Sur 0 -- -- 80
2019-10-10 05:00:00 12.7 21 Sur 28 Sur 0 -- -- 79
2019-10-10 04:00:00 13.8 19 Sur 30 Sur 0 -- -- 76
2019-10-10 03:00:00 14.8 24 Sur 42 Sur 0 -- -- 76
2019-10-10 02:00:00 15.5 30 Sur 44 Sur 0 -- -- 81
2019-10-10 01:00:00 16.4 30 Sur 42 Sur 0 -- -- 85
2019-10-10 00:00:00 17.6 23 Sur 32 Sur 0 -- -- 82
2019-10-09 23:00:00 18.4 13 Sur 30 Sur 0 -- -- 77
2019-10-09 22:00:00 18.6 17 Sur 25 Sur 0 -- -- 77
2019-10-09 21:00:00 19 13 Sur 30 Sudeste 0 -- -- 75
2019-10-09 20:00:00 19.5 20 Sudeste 36 Sudeste 0 -- -- 74
2019-10-09 19:00:00 20.2 26 Sur 40 Sudeste 0 -- -- 69
2019-10-09 18:00:00 22.4 25 Sudeste 45 Sur 0 -- -- 62
2019-10-09 17:00:00 23.7 32 Sur 45 Sudeste 0 -- -- 59
2019-10-09 16:00:00 24.5 32 Sudeste 46 Sur 0 -- -- 55
2019-10-09 15:00:00 25.6 32 Sudeste 45 Sur 0 -- -- 52
2019-10-09 14:00:00 25.4 30 Sur 42 Sur 0 -- -- 51
2019-10-09 13:00:00 24.6 25 Sur 34 Sudeste 0 -- -- 53
2019-10-09 12:00:00 23 5 Sur 12 Sudeste 0 -- -- 51
2019-10-09 11:00:00 19.6 2 Nordeste 7 Norte 0 -- -- 54
2019-10-09 10:00:00 14.1 4 Norte 9 Norte 0 -- -- 75
2019-10-09 09:00:00 10.2 4 Noroeste 9 Norte 0 -- -- 88
2019-10-09 08:00:00 8.9 6 Norte 8 Norte 0 -- -- 91
2019-10-09 07:00:00 9.5 5 Norte 10 Noroeste 0 -- -- 89
2019-10-09 06:00:00 9.2 6 Norte 9 Norte 0 -- -- 91
2019-10-09 05:00:00 10.2 6 Norte 8 Norte 0 -- -- 87
2019-10-09 04:00:00 10.7 5 Norte 6 Norte 0 -- -- 84
2019-10-09 03:00:00 11.7 3 Norte 9 Norte 0 -- -- 79
2019-10-09 02:00:00 11.9 4 Norte 7 Norte 0 -- -- 78
2019-10-09 01:00:00 12.6 4 Nordeste 6 Norte 0 -- -- 75
2019-10-09 00:00:00 13.3 5 Norte 7 Norte 0 -- -- 73
2019-10-08 23:00:00 15.2 3 Norte 5 Norte 0 -- -- 64
2019-10-08 22:00:00 16.6 3 Nordeste 8 Sudeste 0 -- -- 60
2019-10-08 21:00:00 19.1 4 Sudeste 21 Sur 0 -- -- 53
2019-10-08 20:00:00 21 17 Sur 32 Sur 0 -- -- 47
2019-10-08 19:00:00 22.1 23 Sur 35 Sur 0 -- -- 43
2019-10-08 18:00:00 24.5 28 Sur 37 Sur 0 -- -- 36
2019-10-08 17:00:00 25.9 27 Sur 36 Sur 0 -- -- 32
2019-10-08 16:00:00 26.2 27 Sur 42 Sur 0 -- -- 30
2019-10-08 15:00:00 25.7 33 Sur 41 Sudeste 0 -- -- 30
2019-10-08 14:00:00 25 28 Sur 40 Sudeste 0 -- -- 32
2019-10-08 13:00:00 23.8 27 Sur 39 Sur 0 -- -- 34
2019-10-08 12:00:00 23.2 4 Este 11 Sur 0 -- -- 38
2019-10-08 11:00:00 20 2 Nordeste 9 Norte 0 -- -- 43
2019-10-08 10:00:00 13.3 5 Norte 8 Nordeste 0 -- -- 66
2019-10-08 09:00:00 9 6 Norte 8 Norte 0 -- -- 82
2019-10-08 08:00:00 9 6 Norte 12 Norte 0 -- -- 82
2019-10-08 07:00:00 8.7 5 Norte 8 Norte 0 -- -- 86
2019-10-08 06:00:00 9.2 4 Norte 8 Norte 0 -- -- 84
2019-10-08 05:00:00 9.7 5 Norte 7 Norte 0 -- -- 80
2019-10-08 04:00:00 10.3 2 Norte 6 Norte 0 -- -- 78
2019-10-08 03:00:00 11 2 Nordeste 6 Nordeste 0 -- -- 74
2019-10-08 02:00:00 11.9 5 Sur 7 Sur 0 -- -- 71
2019-10-08 01:00:00 12.6 0 Calma 6 Noroeste 0 -- -- 66
2019-10-08 00:00:00 12.9 3 Nordeste 5 Norte 0 -- -- 67
2019-10-07 23:00:00 14.9 3 Sur 8 Sur 0 -- -- 60
2019-10-07 22:00:00 16.1 6 Sudeste 23 Sur 0 -- -- 55
2019-10-07 21:00:00 17.3 17 Sur 33 Sur 0 -- -- 52
2019-10-07 20:00:00 18.4 29 Sur 49 Sur 0 -- -- 48
2019-10-07 19:00:00 18.8 39 Sur 51 Sur 0 -- -- 47
2019-10-07 18:00:00 19.5 39 Sur 52 Sur 0 -- -- 46
2019-10-07 17:00:00 20.2 42 Sur 51 Sur 0 -- -- 45
2019-10-07 16:00:00 22 40 Sur 50 Sur 0 -- -- 42
2019-10-07 15:00:00 20.9 42 Sur 50 Sur 0 -- -- 44
2019-10-07 14:00:00 21.8 26 Sur 37 Sur 0 -- -- 41
2019-10-07 13:00:00 21 10 Sur 14 Sur 0 -- -- 36
2019-10-07 12:00:00 19.1 2 Este 7 Sudeste 0 -- -- 40
2019-10-07 11:00:00 13.2 2 Norte 4 Sudeste 0 -- -- 68
2019-10-07 10:00:00 9 0 Calma 21 Sur 0 -- -- 85
2019-10-07 09:00:00 9.1 17 Sur 25 Sur 0 -- -- 89
2019-10-07 08:00:00 8.5 2 Sudoeste 11 Sur 0 -- -- 83
2019-10-07 07:00:00 10.1 4 Sur 30 Sur 0 -- -- 82
2019-10-07 06:00:00 11.6 22 Sur 35 Sur 0 -- -- 79
2019-10-07 05:00:00 12.4 17 Sur 26 Sur 0 -- -- 72
2019-10-07 04:00:00 14.1 8 Norte 33 Norte 0 -- -- 43
2019-10-07 03:00:00 16.9 21 Norte 53 Nordeste 0 -- -- 37
2019-10-07 02:00:00 17.4 30 Nordeste 54 Nordeste 0 -- -- 37
2019-10-07 01:00:00 12.9 8 Norte 22 Nordeste 0 -- -- 70
2019-10-07 00:00:00 12.6 3 Norte 10 Norte 0 -- -- 79
2019-10-06 23:00:00 13.9 0 Calma 5 Sur 0 -- -- 78
2019-10-06 22:00:00 14.8 3 Nordeste 15 Sur 0 -- -- 73
2019-10-06 21:00:00 16.6 10 Sur 28 Sur 0 -- -- 68
2019-10-06 20:00:00 17.9 24 Sur 33 Sudeste 0 -- -- 66
2019-10-06 19:00:00 18.7 26 Sudeste 44 Sur 0 -- -- 63
2019-10-06 18:00:00 19.5 36 Sur 54 Sur 0 -- -- 65
2019-10-06 17:00:00 20.6 39 Sudeste 49 Sur 0 -- -- 61
2019-10-06 16:00:00 19.3 37 Sur 49 Sur 0 -- -- 64
2019-10-06 15:00:00 21.9 35 Sur 51 Sur 0 -- -- 55
2019-10-06 14:00:00 19.6 40 Sur 50 Sur 0 -- -- 63
2019-10-06 13:00:00 19.3 36 Sur 44 Sur 0 -- -- 64
2019-10-06 12:00:00 18.1 22 Sur 30 Sur 0 -- -- 66
2019-10-06 11:00:00 19.7 4 Nordeste 9 Noroeste 0 -- -- 58
2019-10-06 10:00:00 13.8 3 Norte 7 Noroeste 0 -- -- 81
2019-10-06 09:00:00 9 4 Norte 10 Este 0 -- -- 96
2019-10-06 08:00:00 8.7 3 Noroeste 8 Nordeste 0 -- -- 97
2019-10-06 07:00:00 9.6 3 Norte 8 Nordeste 0 -- -- 96
2019-10-06 06:00:00 9.8 4 Norte 9 Noroeste 0 -- -- 96
2019-10-06 05:00:00 9.5 6 Norte 9 Norte 0 -- -- 92
2019-10-06 04:00:00 9.4 6 Norte 7 Norte 0 -- -- 95
2019-10-06 03:00:00 10.1 3 Nordeste 6 Norte 0 -- -- 91
2019-10-06 02:00:00 10.4 3 Nordeste 8 Nordeste 0 -- -- 91
2019-10-06 01:00:00 11.3 5 Norte 6 Norte 0 -- -- 86
2019-10-06 00:00:00 12.7 3 Norte 6 Sur 0 -- -- 80
2019-10-05 23:00:00 13.7 0 Calma 4 Nordeste 0 -- -- 75
2019-10-05 22:00:00 15.7 0 Calma 8 Sur 0 -- -- 67
2019-10-05 21:00:00 17.4 6 Sur 23 Sur 0 -- -- 60
2019-10-05 20:00:00 19.3 17 Sur 31 Sur 0 -- -- 55
2019-10-05 19:00:00 20.4 23 Sur 42 Sur 0 -- -- 52
2019-10-05 18:00:00 22.3 31 Sur 44 Sur 0 -- -- 48
2019-10-05 17:00:00 23.6 32 Sur 44 Sur 0 -- -- 46
2019-10-05 16:00:00 23.2 37 Sur 50 Sur 0 -- -- 48
2019-10-05 15:00:00 23.6 38 Sur 49 Sur 0 -- -- 48
2019-10-05 14:00:00 23.4 32 Sur 43 Sur 0 -- -- 50
2019-10-05 13:00:00 21.9 31 Sur 39 Sur 0 -- -- 54
2019-10-05 12:00:00 20.7 12 Sur 20 Sur 0 -- -- 55
2019-10-05 11:00:00 19.9 2 Norte 6 Nordeste 0 -- -- 53
2019-10-05 10:00:00 13.7 4 Norte 7 Norte 0 -- -- 77
2019-10-05 09:00:00 9 0 Calma 6 Norte 0 -- -- 92
2019-10-05 08:00:00 8.5 4 Norte 8 Norte 0 -- -- 96
2019-10-05 07:00:00 8.2 5 Norte 8 Norte 0 -- -- 93
2019-10-05 06:00:00 8.5 4 Nordeste 10 Norte 0 -- -- 93
2019-10-05 05:00:00 9.3 6 Norte 10 Norte 0 -- -- 91
2019-10-05 04:00:00 10 4 Norte 11 Norte 0 -- -- 91
2019-10-05 03:00:00 10.5 5 Norte 10 Norte 0 -- -- 86
2019-10-05 02:00:00 11.4 3 Norte 7 Nordeste 0 -- -- 80
2019-10-05 01:00:00 12.2 3 Nordeste 9 Norte 0 -- -- 76
2019-10-05 00:00:00 13.6 2 Sudeste 8 Sur 0 -- -- 69
2019-10-04 23:00:00 14.3 5 Sur 8 Sur 0 -- -- 67
2019-10-04 22:00:00 16.2 0 Calma 12 Sur 0 -- -- 57
2019-10-04 21:00:00 17.7 10 Sur 22 Sur 0 -- -- 52
2019-10-04 20:00:00 20 21 Sur 37 Sur 0 -- -- 44
2019-10-04 19:00:00 20.9 29 Sur 38 Sudeste 0 -- -- 43
2019-10-04 18:00:00 23.1 29 Sur 40 Sur 0 -- -- 37
2019-10-04 17:00:00 24.6 29 Sur 43 Sudeste 0 -- -- 34
2019-10-04 16:00:00 24.6 31 Sur 41 Sur 0 -- -- 34
2019-10-04 15:00:00 24.8 29 Sur 41 Sur 0 -- -- 34
2019-10-04 14:00:00 23.8 30 Sur 44 Sudeste 0 -- -- 35
2019-10-04 13:00:00 23.6 22 Sur 31 Sur 0 -- -- 39
2019-10-04 12:00:00 21.2 4 Nordeste 9 Nordeste 0 -- -- 38
2019-10-04 11:00:00 16.5 6 Norte 12 Nordeste 0 -- -- 51
2019-10-04 10:00:00 12.5 4 Norte 8 Noroeste 0 -- -- 65
2019-10-04 09:00:00 6.4 5 Norte 8 Norte 0 -- -- 90
2019-10-04 08:00:00 7.3 2 Nordeste 8 Norte 0 -- -- 84
2019-10-04 07:00:00 7.2 6 Norte 8 Norte 0 -- -- 87
2019-10-04 06:00:00 6.9 5 Norte 9 Norte 0 -- -- 90
2019-10-04 05:00:00 7.8 4 Norte 9 Norte 0 -- -- 87
2019-10-04 04:00:00 8.2 6 Norte 11 Noroeste 0 -- -- 86
2019-10-04 03:00:00 8 6 Norte 8 Norte 0 -- -- 90
2019-10-04 02:00:00 8.8 2 Norte 9 Norte 0 -- -- 87
2019-10-04 01:00:00 9.5 4 Norte 7 Nordeste 0 -- -- 84
2019-10-04 00:00:00 10.9 8 Norte 9 Nordeste 0 -- -- 77
2019-10-03 23:00:00 12.4 4 Norte 6 Norte 0 -- -- 72
2019-10-03 22:00:00 14.3 4 Nordeste 18 Sudeste 0 -- -- 64
2019-10-03 21:00:00 16.9 14 Sur 32 Sur 0 -- -- 55
2019-10-03 20:00:00 18.2 26 Sur 41 Sur 0 -- -- 52
2019-10-03 19:00:00 19.2 36 Sur 45 Sur 0 -- -- 50
2019-10-03 18:00:00 21.1 35 Sur 46 Sur 0 -- -- 46
2019-10-03 17:00:00 22.5 36 Sur 50 Sur 0 -- -- 44
2019-10-03 16:00:00 21.9 38 Sur 48 Sur 0 -- -- 46
2019-10-03 15:00:00 20.5 39 Sur 51 Sur 0 -- -- 50
2019-10-03 14:00:00 21.2 24 Sur 33 Sur 0 -- -- 50
2019-10-03 13:00:00 22 5 Este 14 Nordeste 0 -- -- 37
2019-10-03 12:00:00 17 8 Nordeste 15 Norte 0 -- -- 44
2019-10-03 11:00:00 14.7 9 Norte 18 Nordeste 0 -- -- 47
2019-10-03 10:00:00 12.8 2 Nordeste 11 Norte 0 -- -- 54
2019-10-03 09:00:00 9 3 Norte 9 Norte 0 -- -- 66
2019-10-03 08:00:00 7.3 5 Norte 10 Norte 0 -- -- 73
2019-10-03 07:00:00 8.2 3 Norte 7 Sur 0 -- -- 70
2019-10-03 06:00:00 9.9 5 Sur 8 Sur 0 -- -- 74
2019-10-03 05:00:00 9 8 Norte 10 Nordeste 0 -- -- 64
2019-10-03 04:00:00 10.1 4 Nordeste 5 Nordeste 0 -- -- 63
2019-10-03 03:00:00 12 2 Nordeste 7 Nordeste 0 -- -- 54
2019-10-03 02:00:00 12.8 4 Nordeste 11 Nordeste 0 -- -- 50
2019-10-03 01:00:00 14.5 5 Norte 25 Norte 0 -- -- 46
2019-10-03 00:00:00 15.9 16 Norte 35 Nordeste 0 -- -- 42
2019-10-02 23:00:00 17.2 15 Norte 37 Nordeste 0 -- -- 40
2019-10-02 22:00:00 17.2 22 Norte 33 Norte 0 -- -- 41
2019-10-02 21:00:00 17.9 20 Norte 30 Norte 0 -- -- 39
2019-10-02 20:00:00 19 16 Norte 39 Norte 0 -- -- 37
2019-10-02 19:00:00 20.3 17 Norte 35 Norte 0 -- -- 35
2019-10-02 18:00:00 23 22 Norte 46 Norte 0 -- -- 30
2019-10-02 17:00:00 24.3 25 Norte 44 Norte 0 -- -- 28
2019-10-02 16:00:00 25 22 Norte 44 Nordeste 0 -- -- 26
2019-10-02 15:00:00 25.1 22 Nordeste 41 Nordeste 0 -- -- 28
2019-10-02 14:00:00 21.8 26 Sur 36 Sur 0 -- -- 43
2019-10-02 13:00:00 20.9 27 Sur 37 Sur 0 -- -- 51
2019-10-02 12:00:00 20.7 24 Sur 31 Sur 0 -- -- 53
2019-10-02 11:00:00 17.5 8 Sur 15 Sur 0 -- -- 60
2019-10-02 10:00:00 16.3 2 Norte 9 Sudeste 0 -- -- 61
2019-10-02 09:00:00 10.2 6 Sudeste 13 Sur 0 -- -- 79
2019-10-02 08:00:00 9.9 0 Calma 8 Sur 0 -- -- 81
2019-10-02 07:00:00 11 2 Nordeste 6 Nordeste 0 -- -- 71
2019-10-02 06:00:00 11.5 3 Norte 6 Nordeste 0 -- -- 72
2019-10-02 05:00:00 13 4 Nordeste 8 Nordeste 0 -- -- 66
2019-10-02 04:00:00 12.6 5 Nordeste 9 Nordeste 0 -- -- 72
2019-10-02 03:00:00 14.4 2 Nordeste 10 Nordeste 0 -- -- 66
2019-10-02 02:00:00 14.1 8 Nordeste 12 Nordeste 0 -- -- 70
2019-10-02 01:00:00 15.9 4 Norte 10 Noroeste 0 -- -- 70
2019-10-02 00:00:00 16.1 9 Norte 19 Norte 0 -- -- 69
2019-10-01 23:00:00 17.8 4 Noroeste 12 Norte 0 -- -- 65
2019-10-01 22:00:00 19.9 3 Nordeste 13 Sur 0 -- -- 60
2019-10-01 21:00:00 22.3 8 Sur 22 Sur 0 -- -- 55
2019-10-01 20:00:00 23 17 Sur 34 Sudeste 0 -- -- 54
2019-10-01 19:00:00 24.9 27 Sudeste 37 Sur 0 -- -- 52
2019-10-01 18:00:00 26.2 22 Sur 40 Sur 0 -- -- 46
2019-10-01 17:00:00 28.4 23 Sur 36 Sur 0 -- -- 38
2019-10-01 16:00:00 29.5 27 Sur 37 Sur 0 -- -- 34
2019-10-01 15:00:00 30 26 Sur 36 Sur 0 -- -- 33
2019-10-01 14:00:00 29.4 25 Sur 33 Sur 0 -- -- 34
2019-10-01 13:00:00 27.3 3 Norte 10 Nordeste 0 -- -- 37
2019-10-01 12:00:00 25.1 5 Nordeste 10 Nordeste 0 -- -- 41
2019-10-01 11:00:00 22.1 5 Nordeste 10 Norte 0 -- -- 48
2019-10-01 10:00:00 17.4 6 Nordeste 10 Nordeste 0 -- -- 61
2019-10-01 09:00:00 11.6 3 Noroeste 12 Norte 0 -- -- 82
2019-10-01 08:00:00 10.1 6 Norte 8 Norte 0 -- -- 87
2019-10-01 07:00:00 11 5 Norte 8 Norte 0 -- -- 82
2019-10-01 06:00:00 11.8 2 Norte 8 Norte 0 -- -- 79
2019-10-01 05:00:00 11.4 5 Norte 9 Norte 0 -- -- 83
2019-10-01 04:00:00 12 9 Norte 11 Norte 0 -- -- 80
2019-10-01 03:00:00 11.4 6 Norte 8 Norte 0 -- -- 82
2019-10-01 02:00:00 12.5 6 Norte 9 Norte 0 -- -- 77
2019-10-01 01:00:00 13.5 5 Norte 6 Nordeste 0 -- -- 73
2019-10-01 00:00:00 15.1 3 Norte 5 Norte 0 -- -- 65
2019-09-30 23:00:00 16.7 3 Nordeste 6 Nordeste 0 -- -- 59
2019-09-30 22:00:00 18.8 4 Norte 6 Este 0 -- -- 51
2019-09-30 21:00:00 21.1 3 Sudoeste 18 Sur 0 -- -- 44
2019-09-30 20:00:00 22.9 15 Sur 28 Sudeste 0 -- -- 40
2019-09-30 19:00:00 24.8 19 Sudeste 30 Sur 0 -- -- 37
2019-09-30 18:00:00 27.8 22 Sudeste 35 Sur 0 -- -- 35
2019-09-30 17:00:00 28.5 22 Sur 42 Sudeste 0 -- -- 36
2019-09-30 16:00:00 28.8 27 Sur 41 Sur 0 -- -- 37
2019-09-30 15:00:00 28.7 30 Sudeste 42 Sur 0 -- -- 38
2019-09-30 14:00:00 27.9 28 Sur 41 Sur 0 -- -- 41
2019-09-30 13:00:00 27.8 17 Sur 31 Sur 0 -- -- 40
2019-09-30 12:00:00 24.3 5 Nordeste 8 Nordeste 0 -- -- 42
2019-09-30 11:00:00 20.7 4 Norte 10 Norte 0 -- -- 52
2019-09-30 10:00:00 17.2 6 Norte 7 Norte 0 -- -- 63
2019-09-30 09:00:00 10.8 5 Noroeste 7 Noroeste 0 -- -- 88
2019-09-30 08:00:00 10.2 3 Noroeste 9 Noroeste 0 -- -- 90
2019-09-30 07:00:00 11.5 5 Norte 8 Noroeste 0 -- -- 83
2019-09-30 06:00:00 10.7 6 Norte 10 Norte 0 -- -- 89
2019-09-30 05:00:00 12.8 4 Norte 9 Noroeste 0 -- -- 79
2019-09-30 04:00:00 13.2 4 Norte 8 Norte 0 -- -- 78
2019-09-30 03:00:00 14.3 3 Norte 9 Noroeste 0 -- -- 73
2019-09-30 02:00:00 14.7 3 Norte 8 Norte 0 -- -- 70
2019-09-30 01:00:00 14.8 5 Norte 7 Norte 0 -- -- 72
2019-09-30 00:00:00 16.8 3 Norte 8 Norte 0 -- -- 65
2019-09-29 23:00:00 17.2 3 Norte 5 Norte 0 -- -- 66
2019-09-29 22:00:00 19.7 3 Este 17 Sur 0 -- -- 56
2019-09-29 21:00:00 22.3 11 Sur 30 Sur 0 -- -- 51
2019-09-29 20:00:00 24.5 22 Sudeste 32 Sudeste 0 -- -- 46
2019-09-29 19:00:00 25.2 19 Sudeste 37 Sudeste 0 -- -- 48
2019-09-29 18:00:00 28 22 Sur 38 Sur 0 -- -- 44
2019-09-29 17:00:00 29.4 24 Sur 38 Sur 0 -- -- 40
2019-09-29 16:00:00 30.3 22 Sur 42 Sur 0 -- -- 26
2019-09-29 15:00:00 30.6 23 Sur 39 Sur 0 -- -- 27
2019-09-29 14:00:00 28.9 20 Sur 32 Sudeste 0 -- -- 40
2019-09-29 13:00:00 27.4 4 Nordeste 9 Nordeste 0 -- -- 39
2019-09-29 12:00:00 24.8 4 Nordeste 14 Nordeste 0 -- -- 44
2019-09-29 11:00:00 21.3 8 Nordeste 16 Nordeste 0 -- -- 54
2019-09-29 10:00:00 17.6 5 Nordeste 17 Nordeste 0 -- -- 70
2019-09-29 09:00:00 11.4 2 Norte 10 Norte 0 -- -- 96
2019-09-29 08:00:00 10.2 8 Norte 12 Norte 0 -- -- 98
2019-09-29 07:00:00 10.8 5 Nordeste 8 Norte 0 -- -- 97
2019-09-29 06:00:00 10.5 6 Norte 10 Norte 0 -- -- 98
2019-09-29 05:00:00 10.5 6 Norte 9 Noroeste 0 -- -- 97
2019-09-29 04:00:00 11 6 Norte 9 Norte 0 -- -- 96
2019-09-29 03:00:00 11.8 7 Norte 9 Norte 0 -- -- 95
2019-09-29 02:00:00 12.2 6 Norte 8 Norte 0 -- -- 93
2019-09-29 01:00:00 13.4 5 Norte 6 Norte 0 -- -- 87
2019-09-29 00:00:00 14.6 3 Nordeste 6 Nordeste 0 -- -- 81
2019-09-28 23:00:00 16.8 3 Sudeste 10 Sur 0 -- -- 74
2019-09-28 22:00:00 18.8 6 Sur 12 Sur 0 -- -- 66
2019-09-28 21:00:00 20.4 8 Sur 30 Sudeste 0 -- -- 60
2019-09-28 20:00:00 21.9 18 Sudeste 29 Sudeste 0 -- -- 57
2019-09-28 19:00:00 22.8 18 Sur 31 Sudoeste 0 -- -- 57
2019-09-28 18:00:00 25.2 20 Sur 36 Sudeste 0 -- -- 50
2019-09-28 17:00:00 26.4 23 Sur 39 Sur 0 -- -- 47
2019-09-28 16:00:00 26.3 28 Sur 38 Sur 0 -- -- 49
2019-09-28 15:00:00 26.5 26 Sudeste 38 Sudeste 0 -- -- 48
2019-09-28 14:00:00 26.9 25 Sur 37 Sur 0 -- -- 47
2019-09-28 13:00:00 25.3 22 Sur 31 Sur 0 -- -- 53
2019-09-28 12:00:00 23.5 6 Sudeste 12 Sudeste 0 -- -- 58
2019-09-28 11:00:00 17.3 2 Noroeste 7 Nordeste 0 -- -- 66
2019-09-28 10:00:00 14.8 4 Norte 6 Nordeste 0 -- -- 78
2019-09-28 09:00:00 12.6 4 Norte 9 Norte 0 -- -- 89
2019-09-28 08:00:00 11.1 3 Norte 8 Noroeste 0 -- -- 92
2019-09-28 07:00:00 11.4 4 Norte 7 Nordeste 0 -- -- 90
2019-09-28 06:00:00 11.1 4 Norte 8 Norte 0 -- -- 90
2019-09-28 05:00:00 10.8 5 Norte 8 Norte 0 -- -- 91
2019-09-28 04:00:00 12 3 Norte 5 Nordeste 0 -- -- 86
2019-09-28 03:00:00 12.5 4 Norte 5 Norte 0 -- -- 82
2019-09-28 02:00:00 13.7 4 Norte 6 Norte 0 -- -- 77
2019-09-28 01:00:00 14.5 3 Este 5 Nordeste 0 -- -- 75
2019-09-28 00:00:00 15.9 2 Norte 5 Nordeste 0 -- -- 70
2019-09-27 23:00:00 17.3 0 Calma 4 Norte 0 -- -- 64
2019-09-27 22:00:00 19.5 3 Nordeste 5 Sur 0 -- -- 57
2019-09-27 21:00:00 22.1 4 Sur 22 Sur 0 -- -- 49
2019-09-27 20:00:00 23.4 18 Sur 26 Sudoeste 0 -- -- 48
2019-09-27 19:00:00 24.8 19 Sur 32 Sur 0 -- -- 46
2019-09-27 18:00:00 26.9 21 Sur 35 Sur 0 -- -- 43
2019-09-27 17:00:00 28.4 17 Sur 31 Sur 0 -- -- 41
2019-09-27 16:00:00 28.3 22 Sur 32 Sudeste 0 -- -- 40
2019-09-27 15:00:00 29.4 21 Sur 35 Sur 0 -- -- 37
2019-09-27 14:00:00 28.4 26 Sudeste 35 Sur 0 -- -- 40
2019-09-27 13:00:00 27.8 18 Sur 25 Sur 0 -- -- 41
2019-09-27 12:00:00 24.8 4 Nordeste 10 Nordeste 0 -- -- 48
2019-09-27 11:00:00 21.9 4 Nordeste 8 Nordeste 0 -- -- 54
2019-09-27 10:00:00 18.2 4 Norte 7 Norte 0 -- -- 67
2019-09-27 09:00:00 12.1 3 Noroeste 7 Noroeste 0 -- -- 91
2019-09-27 08:00:00 11.1 5 Norte 8 Norte 0 -- -- 97
2019-09-27 07:00:00 11.7 5 Norte 9 Norte 0 -- -- 92
2019-09-27 06:00:00 10.9 5 Norte 9 Norte 0 -- -- 95
2019-09-27 05:00:00 11.5 5 Norte 9 Norte 0 -- -- 92
2019-09-27 04:00:00 12.2 4 Noroeste 9 Norte 0 -- -- 90
2019-09-27 03:00:00 12.4 6 Norte 7 Norte 0 -- -- 88
2019-09-27 02:00:00 13 5 Norte 6 Nordeste 0 -- -- 86
2019-09-27 01:00:00 13.8 3 Norte 8 Norte 0 -- -- 82
2019-09-27 00:00:00 15.3 4 Norte 8 Norte 0 -- -- 74
2019-09-26 23:00:00 16.6 3 Norte 6 Norte 0 -- -- 70
2019-09-26 22:00:00 18.1 0 Calma 9 Sur 0 -- -- 63
2019-09-26 21:00:00 19.7 6 Sur 18 Sudoeste 0 -- -- 58
2019-09-26 20:00:00 21.8 12 Sudoeste 30 Sur 0 -- -- 50
2019-09-26 19:00:00 22.6 22 Sur 33 Sur 0 -- -- 48
2019-09-26 18:00:00 25 26 Sudeste 34 Sur 0 -- -- 42
2019-09-26 17:00:00 26 26 Sur 35 Sudeste 0 -- -- 40
2019-09-26 16:00:00 26.1 26 Sur 37 Sur 0 -- -- 40
2019-09-26 15:00:00 25.8 28 Sur 38 Sur 0 -- -- 42
2019-09-26 14:00:00 24.8 30 Sur 40 Sur 0 -- -- 46
2019-09-26 13:00:00 24 26 Sur 34 Sudeste 0 -- -- 49
2019-09-26 12:00:00 22.8 15 Sur 22 Sur 0 -- -- 52
2019-09-26 11:00:00 22.2 3 Sudeste 8 Sur 0 -- -- 50
2019-09-26 10:00:00 16.6 3 Sudeste 6 Sudeste 0 -- -- 66
2019-09-26 09:00:00 9.8 3 Norte 7 Nordeste 0 -- -- 96
2019-09-26 08:00:00 9.4 6 Norte 9 Noroeste 0 -- -- 96
2019-09-26 07:00:00 9.8 4 Norte 7 Norte 0 -- -- 94
2019-09-26 06:00:00 10.2 4 Norte 8 Norte 0 -- -- 92
2019-09-26 05:00:00 11.1 5 Nordeste 7 Noroeste 0 -- -- 88
2019-09-26 04:00:00 11.1 5 Norte 7 Norte 0 -- -- 88
2019-09-26 03:00:00 11.8 3 Nordeste 7 Norte 0 -- -- 86
2019-09-26 02:00:00 12.2 6 Norte 8 Nordeste 0 -- -- 84
2019-09-26 01:00:00 13.4 4 Norte 5 Nordeste 0 -- -- 77
2019-09-26 00:00:00 14.9 2 Norte 4 Nordeste 0 -- -- 70
2019-09-25 23:00:00 16.5 0 Calma 13 Sur 0 -- -- 64
2019-09-25 22:00:00 18 13 Sur 20 Sur 0 -- -- 57
2019-09-25 21:00:00 19 11 Sur 27 Sur 0 -- -- 54
2019-09-25 20:00:00 19.7 17 Sudeste 31 Sudeste 0 -- -- 51
2019-09-25 19:00:00 20.9 18 Sudeste 39 Sur 0 -- -- 47
2019-09-25 18:00:00 22.2 17 Sur 35 Sur 0 -- -- 44
2019-09-25 17:00:00 23.8 19 Sur 38 Sudeste 0 -- -- 40
2019-09-25 16:00:00 24.1 25 Sur 37 Sudeste 0 -- -- 42
2019-09-25 15:00:00 21.9 22 Sur 34 Sur 0 -- -- 46
2019-09-25 14:00:00 22.8 26 Sur 39 Sur 0 -- -- 52
2019-09-25 13:00:00 22.4 30 Sur 44 Sur 0 -- -- 56
2019-09-25 12:00:00 21.6 32 Sur 47 Sur 0 -- -- 62
2019-09-25 11:00:00 18.1 33 Sur 44 Sur 0 -- -- 72
2019-09-25 10:00:00 15.3 5 Norte 9 Norte 0 -- -- 80
2019-09-25 09:00:00 12.8 2 Nordeste 5 Norte 0 -- -- 89
2019-09-25 08:00:00 12.1 3 Norte 5 Norte 0 -- -- 92
2019-09-25 07:00:00 12.5 3 Norte 6 Norte 0 -- -- 90
2019-09-25 06:00:00 13.6 0 Calma 5 Norte 0 -- -- 83
2019-09-25 05:00:00 14 2 Norte 4 Noroeste 0 -- -- 82
2019-09-25 04:00:00 14.5 0 Calma 5 Norte 0 -- -- 78
2019-09-25 03:00:00 15.2 2 Nordeste 6 Norte 0 -- -- 76
2019-09-25 02:00:00 14.8 5 Norte 8 Nordeste 0 -- -- 78
2019-09-25 01:00:00 15.5 6 Norte 17 Sur 0 -- -- 73
2019-09-25 00:00:00 16.2 10 Sur 23 Sur 0 -- -- 73
2019-09-24 23:00:00 17.8 2 Sudoeste 6 Sudeste 0 -- -- 64
2019-09-24 22:00:00 19.3 2 Sur 9 Sudeste 0 -- -- 58
2019-09-24 21:00:00 20.9 5 Sur 18 Sur 0 -- -- 52
2019-09-24 20:00:00 23.1 15 Sur 26 Sur 0 -- -- 45
2019-09-24 19:00:00 24.3 22 Sur 32 Sur 0 -- -- 43
2019-09-24 18:00:00 27.2 21 Sur 37 Sudeste 0 -- -- 37
2019-09-24 17:00:00 27.9 24 Sur 41 Sur 0 -- -- 37
2019-09-24 16:00:00 27.2 29 Sudeste 42 Sur 0 -- -- 38
2019-09-24 15:00:00 28.2 24 Sudeste 35 Sur 0 -- -- 37
2019-09-24 14:00:00 26.7 23 Sur 41 Sudeste 0 -- -- 38
2019-09-24 13:00:00 24.7 26 Sudeste 37 Sudeste 0 -- -- 43
2019-09-24 12:00:00 23.8 6 Sur 16 Sur 0 -- -- 46
2019-09-24 11:00:00 20.9 3 Nordeste 9 Norte 0 -- -- 51
2019-09-24 10:00:00 18.6 4 Nordeste 6 Nordeste 0 -- -- 59
2019-09-24 09:00:00 11.1 0 Calma 8 Norte 0 -- -- 85
2019-09-24 08:00:00 10.3 4 Norte 8 Norte 0 -- -- 88
2019-09-24 07:00:00 10.3 5 Norte 7 Norte 0 -- -- 87
2019-09-24 06:00:00 10.7 3 Norte 7 Norte 0 -- -- 86
2019-09-24 05:00:00 11.3 4 Norte 7 Norte 0 -- -- 82
2019-09-24 04:00:00 11.9 5 Nordeste 7 Norte 0 -- -- 78
2019-09-24 03:00:00 11.5 4 Norte 8 Nordeste 0 -- -- 81
2019-09-24 02:00:00 12.9 4 Norte 9 Norte 0 -- -- 73
2019-09-24 01:00:00 13.7 3 Norte 9 Norte 0 -- -- 70
2019-09-24 00:00:00 13.2 8 Norte 9 Norte 0 -- -- 74
2019-09-23 23:00:00 14.9 4 Norte 6 Norte 0 -- -- 65
2019-09-23 22:00:00 16.7 2 Sur 15 Sur 0 -- -- 58
2019-09-23 21:00:00 18 12 Sur 18 Sur 0 -- -- 53
2019-09-23 20:00:00 19.4 12 Sur 21 Sur 0 -- -- 47
2019-09-23 19:00:00 20.8 12 Sur 27 Sudeste 0 -- -- 45
2019-09-23 18:00:00 21.8 18 Sur 32 Sur 0 -- -- 42
2019-09-23 17:00:00 23.6 20 Sur 28 Sur 0 -- -- 39
2019-09-23 16:00:00 23.6 19 Sur 35 Sur 0 -- -- 40
2019-09-23 15:00:00 24.3 26 Sur 37 Sur 0 -- -- 41
2019-09-23 14:00:00 22.5 29 Sudeste 38 Sudeste 0 -- -- 49
2019-09-23 13:00:00 21.4 29 Sur 37 Sur 0 -- -- 56
2019-09-23 12:00:00 19.6 25 Sur 32 Sur 0 -- -- 62
2019-09-23 11:00:00 17.2 13 Sur 19 Sur 0 -- -- 72
2019-09-23 10:00:00 16.2 3 Norte 6 Norte 0 -- -- 84
2019-09-23 09:00:00 10.2 4 Nordeste 8 Norte 0 -- -- 98
2019-09-23 08:00:00 9.1 5 Norte 6 Norte 0 -- -- 98
2019-09-23 07:00:00 9.4 4 Nordeste 7 Norte 0 -- -- 98
2019-09-23 06:00:00 9.9 5 Norte 6 Norte 0 -- -- 96
2019-09-23 05:00:00 10.4 3 Norte 5 Norte 0 -- -- 97
2019-09-23 04:00:00 11.3 2 Nordeste 5 Nordeste 0 -- -- 96
2019-09-23 03:00:00 12.6 0 Calma 4 Sur 0 -- -- 93
2019-09-23 02:00:00 14.1 3 Sur 5 Nordeste 0 -- -- 88
2019-09-23 01:00:00 14.7 2 Norte 14 Sur 0 -- -- 81
2019-09-23 00:00:00 16.7 5 Sudoeste 14 Sur 0 -- -- 75
2019-09-22 23:00:00 17.8 9 Sur 29 Sur 0 -- -- 69
2019-09-22 22:00:00 19.4 20 Sudeste 30 Sudeste 0 -- -- 62
2019-09-22 21:00:00 20.8 18 Sur 32 Sur 0 -- -- 57
2019-09-22 20:00:00 22.3 8 Sur 30 Sur 0 -- -- 54
2019-09-22 19:00:00 23.2 5 Sudoeste 27 Sur 0 -- -- 54
2019-09-22 18:00:00 24.1 22 Sur 37 Sudeste 0 -- -- 51
2019-09-22 17:00:00 26 9 Sudeste 29 Sudoeste 0 -- -- 49
2019-09-22 16:00:00 24.2 17 Sur 27 Sur 0 -- -- 55
2019-09-22 15:00:00 24.2 21 Sudeste 32 Sur 0 -- -- 61
2019-09-22 14:00:00 26.2 14 Sudeste 23 Sur 0 -- -- 53
2019-09-22 13:00:00 22.9 12 Sur 19 Sudeste 0 -- -- 65
2019-09-22 12:00:00 24.7 5 Nordeste 11 Nordeste 0 -- -- 59
2019-09-22 11:00:00 20.4 4 Norte 9 Norte 0 -- -- 72
2019-09-22 10:00:00 19 4 Nordeste 9 Norte 0 -- -- 79
2019-09-22 09:00:00 15 6 Norte 8 Norte 0 -- -- 97
2019-09-22 08:00:00 14.2 5 Norte 8 Nordeste 0 -- -- 98
2019-09-22 07:00:00 14.6 6 Nordeste 9 Nordeste 0 -- -- 96
2019-09-22 06:00:00 14.9 2 Norte 8 Norte 0 -- -- 95
2019-09-22 05:00:00 15.3 3 Noroeste 6 Nordeste 0 -- -- 94
2019-09-22 04:00:00 15.6 2 Norte 5 Nordeste 0 -- -- 92
2019-09-22 03:00:00 16.1 2 Oeste 6 Norte 0 -- -- 90
2019-09-22 02:00:00 15.8 2 Nordeste 4 Nordeste 0 -- -- 89
2019-09-22 01:00:00 15.9 2 Nordeste 5 Sur 0 -- -- 89
2019-09-22 00:00:00 16.8 3 Sudoeste 24 Sur 0 -- -- 88
2019-09-21 23:00:00 17.1 20 Sur 24 Sur 0 -- -- 86
2019-09-21 22:00:00 17.9 18 Sur 30 Sur 0 -- -- 81
2019-09-21 21:00:00 18.8 23 Sur 37 Sur 0 -- -- 76
2019-09-21 20:00:00 19.6 26 Sur 36 Sur 0 -- -- 74
2019-09-21 19:00:00 20.6 24 Sur 39 Sur 0 -- -- 73
2019-09-21 18:00:00 22.7 26 Sur 43 Sur 0 -- -- 64
2019-09-21 17:00:00 24.7 17 Sur 30 Sur 0 -- -- 51
2019-09-21 16:00:00 24 17 Sur 31 Sur 0 -- -- 52
2019-09-21 15:00:00 25.5 20 Sur 26 Sur 0 -- -- 53
2019-09-21 14:00:00 24.6 4 Nordeste 8 Nordeste 0 -- -- 62
2019-09-21 13:00:00 19.1 4 Norte 10 Nordeste 0 -- -- 82
2019-09-21 12:00:00 18 3 Este 15 Noroeste 0.2 -- -- 97
2019-09-21 11:00:00 15.7 4 Norte 10 Norte 0.2 -- -- 98
2019-09-21 10:00:00 14.5 4 Este 13 Nordeste 1 -- -- 98
2019-09-21 09:00:00 14 5 Norte 9 Oeste 6.6 -- -- 96
2019-09-21 08:00:00 13.7 0 Calma 7 Noroeste 0 -- -- 96
2019-09-21 07:00:00 13.4 3 Norte 8 Nordeste 0 -- -- 96
2019-09-21 06:00:00 14.3 3 Norte 7 Norte 0 -- -- 92
2019-09-21 05:00:00 14.2 2 Nordeste 8 Nordeste 0 -- -- 93
2019-09-21 04:00:00 14.5 3 Norte 6 Nordeste 0 -- -- 90
2019-09-21 03:00:00 14.9 6 Nordeste 8 Nordeste 0 -- -- 89
2019-09-21 02:00:00 16.2 6 Nordeste 12 Sur 0 -- -- 85
2019-09-21 01:00:00 18.1 10 Sur 29 Sur 0 -- -- 83
2019-09-21 00:00:00 19.4 21 Sur 31 Sur 0 -- -- 76
2019-09-20 23:00:00 20.1 12 Sur 20 Sudoeste 0 -- -- 66
2019-09-20 22:00:00 20.7 12 Sur 33 Sudoeste 0 -- -- 62
2019-09-20 21:00:00 21.9 13 Sur 36 Sudoeste 0 -- -- 56
2019-09-20 20:00:00 23.2 17 Sur 30 Sudeste 0 -- -- 49
2019-09-20 19:00:00 24.1 18 Sur 34 Sur 0 -- -- 47
2019-09-20 18:00:00 26 15 Sur 33 Sur 0 -- -- 44
2019-09-20 17:00:00 27.2 17 Sur 33 Sudeste 0 -- -- 42
2019-09-20 16:00:00 28 13 Sur 32 Sur 0 -- -- 41
2019-09-20 15:00:00 28.1 16 Sur 28 Sur 0 -- -- 42
2019-09-20 14:00:00 26.9 22 Sur 30 Sur 0 -- -- 45
2019-09-20 13:00:00 25.4 15 Sur 23 Sur 0 -- -- 51
2019-09-20 12:00:00 23.4 4 Norte 10 Nordeste 0 -- -- 57
2019-09-20 11:00:00 20.7 7 Nordeste 12 Nordeste 0 -- -- 69
2019-09-20 10:00:00 15.1 4 Norte 9 Norte 0 -- -- 95
2019-09-20 09:00:00 13.8 3 Norte 8 Norte 0 -- -- 98
2019-09-20 08:00:00 12.7 4 Norte 12 Nordeste 0 -- -- 99
2019-09-20 07:00:00 13.1 4 Norte 8 Norte 0.2 -- -- 99
2019-09-20 06:00:00 12.9 4 Norte 6 Nordeste 0 -- -- 98
2019-09-20 05:00:00 13.6 4 Norte 9 Norte 0 -- -- 98
2019-09-20 04:00:00 13.7 4 Norte 9 Norte 0 -- -- 98
2019-09-20 03:00:00 14.3 3 Nordeste 9 Norte 0 -- -- 97
2019-09-20 02:00:00 14.8 5 Nordeste 9 Norte 0 -- -- 97
2019-09-20 01:00:00 14.9 7 Norte 10 Norte 0 -- -- 98
2019-09-20 00:00:00 15.5 5 Norte 11 Nordeste 0 -- -- 96